Startpagina
METAR-TAF:

METAR-TAF

Vliegvelden :

Teheran Mehrabad International Airport

Teheran, Iran

breedte: 35-41N, lengte: 051-21E, hoogte: 1204 m

Actueel weer

Dit bericht is 22 minuten geleden gemaakt, om 17:00 UTC
Wind 4 kt uit het noordwesten
Temperatuur 3°C
Vochtigheid 52%
Druk 1020 hPa
Zicht 10 km of meer
geen wolken onder 1500 m en geen cumulonimbus

METAR: OIII 261700Z 31004KT CAVOK 03/M06 Q1020 A3012 NOSIG

Tijdstip: 20:52 (17:22 UTC)

Verwachting

Dit bericht is 5 uur en het 32 minuten geleden gemaakt, om 11:50 UTC
Verwachting geldig van 26 om 12 UTC tot 27 om 18 UTC
Wind 8 kt uit het westen
Zicht: 7000 m
Tijdelijke
van 26 om 12 UTC tot 26 om 15 UTC
Wind 14 kt uit het zuidzuidwesten
Wijzigt naar
van 27 om 02 UTC tot 27 om 04 UTC
Zicht: 4000 m
Weinig wolken op 3500 ft
Verspreide wolken op 10000 ft
Heiigheid
Wijzigt naar
van 27 om 08 UTC tot 27 om 10 UTC
Zicht: 7000 m

TAF: OIII 261150Z 2612/2718 26008KT 7000 NSC TEMPO 2612/2615 20014KT BECMG 2702/2704 4000 HZ FEW035 SCT100 BECMG 2708/2710 7000 NSC

Waarnemingen en weersverwachtingen van meer dan 4000 vliegvelden (METAR en TAF).

De beschikbare stations zijn de gele en rode punten op de kaart.

Ga met uw muis naar het station om de naam te zien.

Klik dan om waarnemingen en weersverwachtingen te zien.

kaart wijzigen: klik op de groene knoppen met een zwart kruis om in te zoomen, op de groene knop met een streepje om uit te zoomen of op de groene pijlen voor aangrenzende kaarten.


METAR-TAF: